Terminal Aerodrome Forecast
Issued by NWS

Home | Current Version | Previous Version | Text Only | Print | Product List | Glossary On
Versions: 1 2 3 4 5 6 7 8 9 10 11 12 13 14 15 16 17 18 19
162
FTUS41 KCAR 311749
TAFHUL
TAF
KHUL 311749Z 3118/0118 26010KT 6SM -SHRA BKN050
     FM312200 30010KT P6SM BKN080
     FM011000 02008KT P6SM FEW150=

USA.gov is the U.S. government's official web portal to all federal, state and local government web resources and services.